createdAt,value
2022-11-20T00:01:43.551Z,21.03
2022-11-20T00:04:13.440Z,21.07
2022-11-20T00:06:43.538Z,24.15
2022-11-20T00:09:13.621Z,22.48
2022-11-20T00:11:43.387Z,20.40
2022-11-20T00:14:13.170Z,21.67
2022-11-20T00:16:43.128Z,22.20
2022-11-20T00:19:12.884Z,20.87
2022-11-20T00:21:42.941Z,20.17
2022-11-20T00:24:12.856Z,22.90
2022-11-20T00:26:42.610Z,23.00
2022-11-20T00:29:12.581Z,23.20
2022-11-20T00:31:42.370Z,23.17
2022-11-20T00:34:12.372Z,24.70
2022-11-20T00:36:42.118Z,21.70
2022-11-20T00:39:11.968Z,18.27
2022-11-20T00:41:41.841Z,18.20
2022-11-20T00:44:11.722Z,20.80
2022-11-20T00:46:41.514Z,21.13
2022-11-20T00:49:11.267Z,20.63
2022-11-20T00:51:41.085Z,18.93
2022-11-20T00:54:11.863Z,23.14
2022-11-20T00:56:41.601Z,19.87
2022-11-20T00:59:12.710Z,19.37
2022-11-20T01:01:42.462Z,21.83
2022-11-20T01:04:11.940Z,22.57
2022-11-20T01:06:42.142Z,19.50
2022-11-20T01:09:16.061Z,20.70
2022-11-20T01:11:46.967Z,20.48
2022-11-20T01:14:19.593Z,23.05
2022-11-20T01:16:52.142Z,20.97
2022-11-20T01:19:25.076Z,22.10
2022-11-20T01:21:56.191Z,21.50
2022-11-20T01:24:25.786Z,23.57
2022-11-20T01:26:55.532Z,20.37
2022-11-20T01:29:26.863Z,21.30
2022-11-20T01:31:56.621Z,23.77
2022-11-20T01:34:26.430Z,19.20
2022-11-20T01:36:56.189Z,22.40
2022-11-20T01:39:27.937Z,18.90
2022-11-20T01:42:15.852Z,20.00
2022-11-20T01:44:57.362Z,18.93
2022-11-20T01:47:39.518Z,19.00
2022-11-20T01:50:16.682Z,22.17
2022-11-20T01:52:49.225Z,23.45
2022-11-20T01:55:27.598Z,21.50
2022-11-20T01:57:57.206Z,19.23
2022-11-20T02:00:26.794Z,23.27
2022-11-20T02:02:59.644Z,25.43
2022-11-20T02:05:35.305Z,22.40
2022-11-20T02:08:08.379Z,24.00
2022-11-20T02:10:38.297Z,23.10
2022-11-20T02:13:25.984Z,23.37
2022-11-20T02:15:56.430Z,22.20
2022-11-20T02:18:26.733Z,19.25
2022-11-20T02:21:17.282Z,21.40
2022-11-20T02:24:08.064Z,21.50
2022-11-20T02:26:40.854Z,19.13
2022-11-20T02:29:10.620Z,20.03
2022-11-20T02:31:42.562Z,21.85
2022-11-20T02:34:12.292Z,20.60
2022-11-20T02:36:44.280Z,19.33
2022-11-20T02:39:16.922Z,26.37
2022-11-20T02:41:47.071Z,22.07
2022-11-20T02:44:16.823Z,21.42
2022-11-20T02:46:46.606Z,24.90
2022-11-20T02:49:18.109Z,22.17
2022-11-20T02:51:47.996Z,21.97
2022-11-20T02:54:17.723Z,23.12
2022-11-20T02:56:47.514Z,20.93
2022-11-20T02:59:17.285Z,25.13
2022-11-20T03:01:47.186Z,20.57
2022-11-20T03:04:17.035Z,21.37
2022-11-20T03:06:46.796Z,21.57
2022-11-20T03:09:16.554Z,19.43
2022-11-20T03:11:46.678Z,25.52
2022-11-20T03:14:16.272Z,21.35
2022-11-20T03:16:46.086Z,22.87
2022-11-20T03:19:16.133Z,19.67
2022-11-20T03:21:46.251Z,28.12
2022-11-20T03:24:16.518Z,22.50
2022-11-20T03:26:46.672Z,23.40
2022-11-20T03:29:16.604Z,27.20
2022-11-20T03:31:46.627Z,23.97
2022-11-20T03:34:16.114Z,29.95
2022-11-20T03:36:46.058Z,25.73
2022-11-20T03:39:15.804Z,25.83
2022-11-20T03:41:45.863Z,23.98
2022-11-20T03:44:15.581Z,24.73
2022-11-20T03:46:45.368Z,26.90
2022-11-20T03:49:15.134Z,22.87
2022-11-20T03:51:44.719Z,25.60
2022-11-20T03:54:14.323Z,21.57
2022-11-20T03:56:44.102Z,21.83
2022-11-20T03:59:13.992Z,29.63
2022-11-20T04:01:49.183Z,22.73
2022-11-20T04:04:15.278Z,22.53
2022-11-20T04:06:45.032Z,24.27
2022-11-20T04:09:16.661Z,22.73
2022-11-20T04:11:46.790Z,24.72
2022-11-20T04:14:17.616Z,22.23
2022-11-20T04:16:47.466Z,21.90
2022-11-20T04:19:18.730Z,23.93
2022-11-20T04:21:48.766Z,25.77
2022-11-20T04:24:18.305Z,27.63
2022-11-20T04:26:48.113Z,22.90
2022-11-20T04:29:17.976Z,28.60
2022-11-20T04:31:47.848Z,24.60
2022-11-20T04:34:17.612Z,23.02
2022-11-20T04:36:47.370Z,22.63
2022-11-20T04:39:17.851Z,23.97
2022-11-20T04:41:47.649Z,24.97
2022-11-20T04:44:17.094Z,24.63
2022-11-20T04:46:46.858Z,24.07
2022-11-20T04:49:16.833Z,24.03
2022-11-20T04:51:46.991Z,25.35
2022-11-20T04:54:17.167Z,20.43
2022-11-20T04:56:48.709Z,22.70
2022-11-20T04:59:19.093Z,20.10
2022-11-20T05:01:49.307Z,23.33
2022-11-20T05:04:19.116Z,21.55
2022-11-20T05:06:49.265Z,20.88
2022-11-20T05:09:19.436Z,25.27
2022-11-20T05:11:51.594Z,25.57
2022-11-20T05:14:20.961Z,24.57
2022-11-20T05:16:51.182Z,21.17
2022-11-20T05:19:21.420Z,22.37
2022-11-20T05:21:51.314Z,22.30
2022-11-20T05:24:21.294Z,21.70
2022-11-20T05:26:51.085Z,23.27
2022-11-20T05:29:21.327Z,18.37
2022-11-20T05:31:51.441Z,18.95
2022-11-20T05:34:21.195Z,24.40
2022-11-20T05:36:51.269Z,20.97
2022-11-20T05:39:21.516Z,25.53
2022-11-20T05:41:53.210Z,26.07
2022-11-20T05:44:22.927Z,28.67
2022-11-20T05:46:52.692Z,29.27
2022-11-20T05:49:23.004Z,28.02
2022-11-20T05:51:53.071Z,28.53
2022-11-20T05:54:22.525Z,22.37
2022-11-20T05:56:52.302Z,27.93
2022-11-20T05:59:22.467Z,23.97
2022-11-20T06:01:52.750Z,22.37
2022-11-20T06:04:22.361Z,24.15
2022-11-20T06:06:52.445Z,22.50
2022-11-20T06:09:22.632Z,21.63
2022-11-20T06:11:52.503Z,21.20
2022-11-20T06:14:22.251Z,26.57
2022-11-20T06:16:51.990Z,26.33
2022-11-20T06:19:22.128Z,29.53
2022-11-20T06:21:52.009Z,23.90
2022-11-20T06:24:21.518Z,28.87
2022-11-20T06:26:51.270Z,22.40
2022-11-20T06:29:21.277Z,23.23
2022-11-20T06:31:51.277Z,21.80
2022-11-20T06:34:21.126Z,27.37
2022-11-20T06:36:50.874Z,25.37
2022-11-20T06:39:20.996Z,22.33
2022-11-20T06:41:55.726Z,25.43
2022-11-20T06:44:22.525Z,23.20
2022-11-20T06:46:52.324Z,27.27
2022-11-20T06:49:22.459Z,23.93
2022-11-20T06:51:52.496Z,23.83
2022-11-20T06:54:21.954Z,19.73
2022-11-20T06:56:52.083Z,23.67
2022-11-20T06:59:22.486Z,22.53
2022-11-20T07:01:52.429Z,24.67
2022-11-20T07:04:21.952Z,23.93
2022-11-20T07:06:51.707Z,23.47
2022-11-20T07:09:21.484Z,27.10
2022-11-20T07:11:51.334Z,25.10
2022-11-20T07:14:21.045Z,25.43
2022-11-20T07:16:50.798Z,23.03
2022-11-20T07:19:21.201Z,21.82
2022-11-20T07:21:51.075Z,26.37
2022-11-20T07:24:20.621Z,26.27
2022-11-20T07:26:53.229Z,22.53
2022-11-20T07:29:23.289Z,26.27
2022-11-20T07:31:53.283Z,24.40
2022-11-20T07:34:23.041Z,22.95
2022-11-20T07:36:52.887Z,25.60
2022-11-20T07:39:23.048Z,23.73
2022-11-20T07:41:53.126Z,22.70
2022-11-20T07:44:23.006Z,22.58
2022-11-20T07:46:52.870Z,22.47
2022-11-20T07:49:23.071Z,26.27
2022-11-20T07:51:56.700Z,31.37
2022-11-20T07:54:26.608Z,24.73
2022-11-20T07:56:56.449Z,29.07
2022-11-20T07:59:26.217Z,27.03
2022-11-20T08:01:56.541Z,28.62
2022-11-20T08:04:26.298Z,31.10
2022-11-20T08:06:56.057Z,28.47
2022-11-20T08:09:25.820Z,26.20
2022-11-20T08:12:13.196Z,26.97
2022-11-20T08:14:42.950Z,29.43
2022-11-20T08:17:13.403Z,28.70
2022-11-20T08:19:43.464Z,30.15
2022-11-20T08:22:12.935Z,29.95
2022-11-20T08:24:42.684Z,32.03
2022-11-20T08:27:12.928Z,28.33
2022-11-20T08:29:42.667Z,32.40
2022-11-20T08:32:12.426Z,31.07
2022-11-20T08:34:42.244Z,33.50
2022-11-20T08:37:12.045Z,35.03
2022-11-20T08:39:42.107Z,37.25
2022-11-20T08:42:12.086Z,30.27
2022-11-20T08:44:41.896Z,36.87
2022-11-20T08:47:11.643Z,39.40
2022-11-20T08:49:41.400Z,52.97
2022-11-20T08:52:12.777Z,33.28
2022-11-20T08:54:42.583Z,32.83
2022-11-20T08:57:12.554Z,31.43
2022-11-20T09:02:14.739Z,37.88
2022-11-20T09:04:44.497Z,35.33
2022-11-20T09:07:14.432Z,37.23
2022-11-20T09:09:44.432Z,34.20
2022-11-20T09:12:15.265Z,39.96
2022-11-20T09:14:45.189Z,36.47
2022-11-20T09:17:15.829Z,37.47
2022-11-20T09:19:46.085Z,32.43
2022-11-20T09:22:16.225Z,30.70
2022-11-20T09:24:46.060Z,31.47
2022-11-20T09:27:15.828Z,32.80
2022-11-20T09:29:45.656Z,32.73
2022-11-20T09:32:15.733Z,32.93
2022-11-20T09:34:45.524Z,36.27
2022-11-20T09:37:15.626Z,34.58
2022-11-20T09:39:45.326Z,40.97
2022-11-20T09:42:34.805Z,35.68
2022-11-20T09:45:25.601Z,36.87
2022-11-20T09:48:33.232Z,32.08
2022-11-20T09:51:28.189Z,35.73
2022-11-20T09:54:09.740Z,38.27
2022-11-20T09:56:44.263Z,36.90
2022-11-20T09:59:34.708Z,35.10
2022-11-20T10:02:06.853Z,35.23
2022-11-20T10:04:40.800Z,36.50
2022-11-20T10:07:38.064Z,36.33
2022-11-20T10:09:56.690Z,39.10
2022-11-20T10:12:56.864Z,36.57
2022-11-20T10:15:45.836Z,35.27
2022-11-20T10:18:43.946Z,36.53
2022-11-20T10:21:27.618Z,39.70
2022-11-20T10:24:18.753Z,32.23
2022-11-20T10:27:07.544Z,40.90
2022-11-20T10:29:40.063Z,36.73
2022-11-20T10:32:15.412Z,38.04
2022-11-20T10:34:56.892Z,41.83
2022-11-20T10:37:31.797Z,42.73
2022-11-20T10:40:04.573Z,43.80
2022-11-20T10:42:46.134Z,39.42
2022-11-20T10:45:32.312Z,42.38
2022-11-20T10:48:10.864Z,40.90
2022-11-20T10:50:43.690Z,40.53
2022-11-20T10:53:39.287Z,40.55
2022-11-20T10:59:11.172Z,41.83
2022-11-20T11:01:44.821Z,37.70
2022-11-20T11:04:22.710Z,44.80
2022-11-20T11:06:55.257Z,37.67
2022-11-20T11:09:28.097Z,39.53
2022-11-20T11:14:29.938Z,43.83
2022-11-20T11:17:00.606Z,43.63
2022-11-20T11:19:30.649Z,37.93
2022-11-20T11:22:01.158Z,36.00
2022-11-20T11:24:42.149Z,43.28
2022-11-20T11:27:10.133Z,35.00
2022-11-20T11:29:39.437Z,35.30
2022-11-20T11:32:23.116Z,38.30
2022-11-20T11:35:07.868Z,38.17
2022-11-20T11:37:39.726Z,46.00
2022-11-20T11:40:23.996Z,40.30
2022-11-20T11:42:55.659Z,38.83
2022-11-20T11:45:26.426Z,38.50
2022-11-20T11:47:59.312Z,40.50
2022-11-20T11:50:30.553Z,39.13
2022-11-20T11:53:09.398Z,42.03
2022-11-20T11:55:47.849Z,47.60
2022-11-20T11:58:22.898Z,45.87
2022-11-20T12:01:01.354Z,41.77
2022-11-20T12:03:36.986Z,47.83
2022-11-20T12:06:09.482Z,49.30
2022-11-20T12:08:45.009Z,48.13
2022-11-20T12:11:20.211Z,48.83
2022-11-20T12:14:03.464Z,52.85
2022-11-20T12:16:38.751Z,57.87
2022-11-20T12:19:13.864Z,61.77
2022-11-20T12:22:03.398Z,51.07
2022-11-20T12:24:46.546Z,50.90
2022-11-20T12:27:21.875Z,61.47
2022-11-20T12:30:06.666Z,55.03
2022-11-20T12:32:39.736Z,52.23
2022-11-20T12:35:24.043Z,56.13
2022-11-20T12:38:24.896Z,57.70
2022-11-20T12:41:09.600Z,55.07
2022-11-20T12:44:12.275Z,54.63
2022-11-20T12:46:51.399Z,58.92
2022-11-20T12:49:26.870Z,52.40
2022-11-20T12:52:27.283Z,62.43
2022-11-20T12:55:12.261Z,53.50
2022-11-20T12:57:50.860Z,52.57
2022-11-20T13:00:25.655Z,57.35
2022-11-20T13:03:17.950Z,51.25
2022-11-20T13:05:59.147Z,47.47
2022-11-20T13:11:45.561Z,48.30
2022-11-20T13:14:43.947Z,49.50
2022-11-20T13:17:33.281Z,54.37
2022-11-20T13:20:05.782Z,53.95
2022-11-20T13:22:53.161Z,56.48
2022-11-20T13:25:30.755Z,45.87
2022-11-20T13:28:12.600Z,53.77
2022-11-20T13:30:54.040Z,46.83
2022-11-20T13:33:35.325Z,46.87
2022-11-20T13:36:10.898Z,44.93
2022-11-20T13:38:46.228Z,53.00
2022-11-20T13:41:32.036Z,45.13
2022-11-20T13:44:10.448Z,43.33
2022-11-20T13:46:48.505Z,53.17
2022-11-20T13:49:38.944Z,46.70
2022-11-20T13:52:35.821Z,51.35
2022-11-20T13:55:30.672Z,46.83
2022-11-20T13:58:15.395Z,51.20
2022-11-20T14:00:48.246Z,48.33
2022-11-20T14:06:03.784Z,55.43
2022-11-20T14:08:41.915Z,48.25
2022-11-20T14:11:26.337Z,55.50
2022-11-20T14:14:01.780Z,56.07
2022-11-20T14:16:34.075Z,58.27
2022-11-20T14:19:22.875Z,53.83
2022-11-20T14:21:55.402Z,54.87
2022-11-20T14:24:28.020Z,64.23
2022-11-20T14:26:57.821Z,62.63
2022-11-20T14:29:33.819Z,58.48
2022-11-20T14:32:04.822Z,64.72
2022-11-20T14:34:37.537Z,71.70
2022-11-20T14:37:16.376Z,66.87
2022-11-20T14:39:51.270Z,72.30
2022-11-20T14:42:23.787Z,74.03
2022-11-20T14:44:56.809Z,76.23
2022-11-20T14:47:32.353Z,71.27
2022-11-20T14:50:08.828Z,72.13
2022-11-20T14:52:35.387Z,67.97
2022-11-20T14:55:06.837Z,75.90
2022-11-20T14:57:38.229Z,72.63
2022-11-20T15:00:14.418Z,68.30
2022-11-20T15:02:46.641Z,66.57
2022-11-20T15:05:17.148Z,77.92
2022-11-20T15:07:50.090Z,80.80
2022-11-20T15:10:29.922Z,72.73
2022-11-20T15:13:12.752Z,72.83
2022-11-20T15:15:49.390Z,81.17
2022-11-20T15:18:22.258Z,74.65
2022-11-20T15:20:53.527Z,82.43
2022-11-20T15:23:23.840Z,81.40
2022-11-20T15:25:53.610Z,76.00
2022-11-20T15:28:48.341Z,76.75
2022-11-20T15:31:20.405Z,73.02
2022-11-20T15:33:50.884Z,74.93
2022-11-20T15:36:20.596Z,76.40
2022-11-20T15:38:50.993Z,77.53
2022-11-20T15:41:20.746Z,74.50
2022-11-20T15:43:50.858Z,82.03
2022-11-20T15:46:23.354Z,86.37
2022-11-20T15:49:00.974Z,81.17
2022-11-20T15:51:33.640Z,80.20
2022-11-20T15:54:05.347Z,65.10
2022-11-20T15:56:35.100Z,72.20
2022-11-20T15:59:05.279Z,76.57
2022-11-20T16:01:35.197Z,78.33
2022-11-20T16:04:06.818Z,73.40
2022-11-20T16:06:36.664Z,76.33
2022-11-20T16:09:06.802Z,65.37
2022-11-20T16:11:40.132Z,70.55
2022-11-20T16:14:30.227Z,74.85
2022-11-20T16:16:59.989Z,62.07
2022-11-20T16:19:30.008Z,76.07
2022-11-20T16:22:03.421Z,66.33
2022-11-20T16:24:33.890Z,62.15
2022-11-20T16:27:03.887Z,60.47
2022-11-20T16:29:33.919Z,64.35
2022-11-20T16:32:03.687Z,65.17
2022-11-20T16:34:33.723Z,57.15
2022-11-20T16:37:03.504Z,60.40
2022-11-20T16:39:33.510Z,54.25
2022-11-20T16:42:05.466Z,59.30
2022-11-20T16:44:35.709Z,55.80
2022-11-20T16:47:05.961Z,54.80
2022-11-20T16:49:36.028Z,58.42
2022-11-20T16:52:05.887Z,57.73
2022-11-20T16:54:35.973Z,62.62
2022-11-20T16:57:05.706Z,64.50
2022-11-20T16:59:35.749Z,56.80
2022-11-20T17:02:05.578Z,63.97
2022-11-20T17:04:41.708Z,85.22
2022-11-20T17:07:09.078Z,74.63
2022-11-20T17:09:39.543Z,78.50
2022-11-20T17:12:09.311Z,119.27
2022-11-20T17:14:39.339Z,70.55
2022-11-20T17:17:09.101Z,71.67
2022-11-20T17:19:39.151Z,61.33
2022-11-20T17:22:09.270Z,60.33
2022-11-20T17:24:39.364Z,56.53
2022-11-20T17:27:09.134Z,63.17
2022-11-20T17:29:42.088Z,56.73
2022-11-20T17:32:13.565Z,56.68
2022-11-20T17:34:43.325Z,62.23
2022-11-20T17:37:13.170Z,67.77
2022-11-20T17:39:44.694Z,60.37
2022-11-20T17:42:29.253Z,62.20
2022-11-20T17:44:58.865Z,63.35
2022-11-20T17:47:28.646Z,62.07
2022-11-20T17:49:58.386Z,52.43
2022-11-20T17:52:28.131Z,53.48
2022-11-20T17:54:57.878Z,56.97
2022-11-20T17:57:44.781Z,59.25
2022-11-20T18:00:17.682Z,57.72
2022-11-20T18:02:47.679Z,56.87
2022-11-20T18:05:17.818Z,53.87
2022-11-20T18:07:47.914Z,53.92
2022-11-20T18:10:19.745Z,58.94
2022-11-20T18:12:49.498Z,52.60
2022-11-20T18:15:19.366Z,57.03
2022-11-20T18:17:49.630Z,56.43
2022-11-20T18:20:30.321Z,53.18
2022-11-20T18:22:51.682Z,60.13
2022-11-20T18:25:21.410Z,59.00
2022-11-20T18:27:51.244Z,50.47
2022-11-20T18:30:21.149Z,53.14
2022-11-20T18:32:50.969Z,51.67
2022-11-20T18:35:20.533Z,55.60
2022-11-20T18:37:50.333Z,53.30
2022-11-20T18:40:20.162Z,57.80
2022-11-20T18:43:07.718Z,57.58
2022-11-20T18:45:37.444Z,53.87
2022-11-20T18:48:07.302Z,62.43
2022-11-20T18:50:37.157Z,59.33
2022-11-20T18:53:06.908Z,53.37
2022-11-20T18:55:37.392Z,59.83
2022-11-20T18:58:07.132Z,52.27
2022-11-20T19:00:36.890Z,58.10
2022-11-20T19:03:06.624Z,52.30
2022-11-20T19:05:38.408Z,52.93
2022-11-20T19:08:08.530Z,57.53
2022-11-20T19:10:38.284Z,57.97
2022-11-20T19:13:08.036Z,55.50
2022-11-20T19:15:38.249Z,55.28
2022-11-20T19:18:08.531Z,64.10
2022-11-20T19:20:38.463Z,62.07
2022-11-20T19:23:08.417Z,65.23
2022-11-20T19:25:38.580Z,74.62
2022-11-20T19:28:08.706Z,67.20
2022-11-20T19:30:40.406Z,74.47
2022-11-20T19:33:10.233Z,68.33
2022-11-20T19:35:39.974Z,69.67
2022-11-20T19:38:10.923Z,72.16
2022-11-20T19:40:40.722Z,67.57
2022-11-20T19:43:10.461Z,71.93
2022-11-20T19:45:40.270Z,66.97
2022-11-20T19:48:11.227Z,68.07
2022-11-20T19:50:40.699Z,62.10
2022-11-20T19:53:11.478Z,66.07
2022-11-20T19:55:43.073Z,69.17
2022-11-20T19:58:14.192Z,61.38
2022-11-20T20:00:43.903Z,66.13
2022-11-20T20:03:13.964Z,68.55
2022-11-20T20:05:44.182Z,62.27
2022-11-20T20:08:17.033Z,64.22
2022-11-20T20:10:46.682Z,60.87
2022-11-20T20:13:16.433Z,64.03
2022-11-20T20:15:46.547Z,58.73
2022-11-20T20:18:16.599Z,60.33
2022-11-20T20:20:46.381Z,58.63
2022-11-20T20:23:16.154Z,65.50
2022-11-20T20:25:49.100Z,64.67
2022-11-20T20:28:18.668Z,59.85
2022-11-20T20:30:48.393Z,70.10
2022-11-20T20:33:18.152Z,64.03
2022-11-20T20:35:48.127Z,70.17
2022-11-20T20:38:18.198Z,64.60
2022-11-20T20:40:49.595Z,67.00
2022-11-20T20:43:19.335Z,62.77
2022-11-20T20:45:49.685Z,62.90
2022-11-20T20:48:21.383Z,62.47
2022-11-20T20:51:02.933Z,61.37
2022-11-20T20:53:32.694Z,62.83
2022-11-20T20:56:03.877Z,67.47
2022-11-20T20:58:33.324Z,60.25
2022-11-20T21:01:05.400Z,65.45
2022-11-20T21:03:35.990Z,63.50
2022-11-20T21:06:08.331Z,64.07
2022-11-20T21:08:40.735Z,62.87
2022-11-20T21:11:19.578Z,61.33
2022-11-20T21:13:50.118Z,62.47
2022-11-20T21:16:22.376Z,62.95
2022-11-20T21:18:52.121Z,69.97
2022-11-20T21:21:39.314Z,69.00
2022-11-20T21:24:10.220Z,65.17
2022-11-20T21:26:42.282Z,63.43
2022-11-20T21:29:12.235Z,63.90
2022-11-20T21:31:42.256Z,61.30
2022-11-20T21:34:16.043Z,59.38
2022-11-20T21:36:46.423Z,60.30
2022-11-20T21:39:17.428Z,57.57
2022-11-20T21:41:47.212Z,63.20
2022-11-20T21:44:30.893Z,62.90
2022-11-20T21:46:49.195Z,62.62
2022-11-20T21:49:18.937Z,57.57
2022-11-20T21:51:48.684Z,59.77
2022-11-20T21:54:18.465Z,58.48
2022-11-20T21:56:48.225Z,55.27
2022-11-20T21:59:20.639Z,52.70
2022-11-20T22:01:50.505Z,57.80
2022-11-20T22:04:21.392Z,58.47
2022-11-20T22:06:51.597Z,55.48
2022-11-20T22:09:21.344Z,60.10
2022-11-20T22:11:51.101Z,53.40
2022-11-20T22:14:20.954Z,58.00
2022-11-20T22:16:52.837Z,56.13
2022-11-20T22:19:23.518Z,56.50
2022-11-20T22:21:53.557Z,55.78
2022-11-20T22:24:24.320Z,61.00
2022-11-20T22:26:54.184Z,54.33
2022-11-20T22:29:24.229Z,56.95
2022-11-20T22:31:53.973Z,53.47
2022-11-20T22:34:23.869Z,56.03
2022-11-20T22:36:53.764Z,59.77
2022-11-20T22:39:26.210Z,58.67
2022-11-20T22:41:56.258Z,57.50
2022-11-20T22:44:26.047Z,49.97
2022-11-20T22:46:56.035Z,57.33
2022-11-20T22:49:26.113Z,60.05
2022-11-20T22:51:55.876Z,55.30
2022-11-20T22:54:25.589Z,59.48
2022-11-20T22:56:55.500Z,59.40
2022-11-20T22:59:25.249Z,61.10
2022-11-20T23:01:54.987Z,69.70
2022-11-20T23:04:25.204Z,65.30
2022-11-20T23:06:54.860Z,64.90
2022-11-20T23:09:24.617Z,66.97
2022-11-20T23:11:54.419Z,68.87
2022-11-20T23:14:27.675Z,72.58
2022-11-20T23:16:55.825Z,67.90
2022-11-20T23:19:25.729Z,65.33
2022-11-20T23:21:55.219Z,64.95
2022-11-20T23:24:25.189Z,71.63
2022-11-20T23:26:55.132Z,62.60
2022-11-20T23:29:25.022Z,69.03
2022-11-20T23:31:55.236Z,68.70
2022-11-20T23:34:25.124Z,62.77
2022-11-20T23:36:55.266Z,69.00
2022-11-20T23:39:25.330Z,61.33
2022-11-20T23:41:55.062Z,76.37
2022-11-20T23:44:25.528Z,69.30
2022-11-20T23:46:55.686Z,73.70
2022-11-20T23:49:25.417Z,69.30
2022-11-20T23:51:55.184Z,69.83
2022-11-20T23:54:25.051Z,69.70
2022-11-20T23:56:55.133Z,69.63
2022-11-20T23:59:25.628Z,71.00
